Time;durP1;ratioP1;P1;durP2;ratioP2;P2;SDS_P1;SDS_P2;PMS_P1;PMS_P2;Temp;Humidity;BMP_temperature;BMP_pressure;BME280_temperature;BME280_humidity;BME280_pressure;Samples;Min_cycle;Max_cycle;Signal;HPM_P1;HPM_P2
2022/09/24 00:00:57;;;;;;;20.52;16.73;;;14.40;99.90;;;;;;5043572;28;20044;-58
2022/09/24 00:03:25;;;;;;;21.90;16.75;;;14.40;99.90;;;;;;5041884;28;20743;-58
2022/09/24 00:05:52;;;;;;;20.75;18.15;;;14.30;99.90;;;;;;5047742;28;20054;-59
2022/09/24 00:08:18;;;;;;;22.27;16.88;;;14.40;99.90;;;;;;5042802;28;20033;-58
2022/09/24 00:10:46;;;;;;;24.88;17.85;;;14.40;99.90;;;;;;5047202;28;20072;-59
2022/09/24 00:13:14;;;;;;;21.33;18.15;;;14.40;99.90;;;;;;5039337;28;20045;-58
2022/09/24 00:15:42;;;;;;;24.17;18.55;;;14.30;99.90;;;;;;5044497;28;20025;-59
2022/09/24 00:18:09;;;;;;;21.30;17.73;;;14.30;99.90;;;;;;5045117;28;20026;-58
2022/09/24 00:20:35;;;;;;;22.23;18.23;;;14.30;99.90;;;;;;5048586;28;20362;-58
2022/09/24 00:23:01;;;;;;;24.38;18.48;;;14.30;99.90;;;;;;5047972;28;20064;-59
2022/09/24 00:28:12;;;;;;;28.42;18.27;;;14.30;99.90;;;;;;5046795;28;20118;-59
2022/09/24 00:30:40;;;;;;;25.38;18.58;;;14.20;99.90;;;;;;5048952;28;20048;-58
2022/09/24 00:33:06;;;;;;;23.13;18.13;;;14.20;99.90;;;;;;5044169;28;20032;-58
2022/09/24 00:35:32;;;;;;;21.65;17.52;;;14.20;99.90;;;;;;5049481;28;20451;-57
2022/09/24 00:37:58;;;;;;;22.48;18.48;;;14.20;99.90;;;;;;5049465;28;20102;-59
2022/09/24 00:40:28;;;;;;;21.35;17.65;;;14.20;99.90;;;;;;5044639;28;20049;-59
2022/09/24 00:42:53;;;;;;;21.83;17.77;;;14.10;99.90;;;;;;5046720;28;20040;-57
2022/09/24 00:45:19;;;;;;;21.95;18.02;;;14.20;99.90;;;;;;5039685;28;20037;-58
2022/09/24 00:47:44;;;;;;;22.77;18.83;;;14.20;99.90;;;;;;5045527;28;20051;-58
2022/09/24 00:50:13;;;;;;;23.25;18.50;;;14.10;99.90;;;;;;5043904;28;20040;-59
2022/09/24 00:52:47;;;;;;;21.27;18.73;;;14.10;99.90;;;;;;5047359;28;20051;-59
2022/09/24 00:55:14;;;;;;;25.85;19.45;;;14.10;99.90;;;;;;5045172;28;20155;-58
2022/09/24 00:57:42;;;;;;;25.17;20.00;;;14.10;99.90;;;;;;5047683;28;20120;-58
2022/09/24 01:00:08;;;;;;;26.13;18.90;;;14.10;99.90;;;;;;5043106;28;20555;-59
2022/09/24 01:02:36;;;;;;;23.88;19.35;;;14.10;99.90;;;;;;5044894;28;20076;-58
2022/09/24 01:05:03;;;;;;;23.73;20.40;;;14.00;99.90;;;;;;5042589;28;20029;-56
2022/09/24 01:07:28;;;;;;;26.95;19.83;;;14.00;99.90;;;;;;5044213;28;20049;-58
2022/09/24 01:09:54;;;;;;;21.98;18.48;;;14.00;99.90;;;;;;5049218;28;20033;-59
2022/09/24 01:12:38;;;;;;;22.42;18.60;;;14.00;99.90;;;;;;5044922;28;20060;-56
2022/09/24 01:15:36;;;;;;;20.90;17.40;;;14.00;99.90;;;;;;5041277;28;20551;-58
2022/09/24 01:18:15;;;;;;;21.40;18.73;;;14.00;99.90;;;;;;5042752;28;20521;-58
2022/09/24 01:20:52;;;;;;;19.92;17.75;;;14.10;99.90;;;;;;5046741;28;20037;-58
2022/09/24 01:23:49;;;;;;;21.95;17.90;;;14.10;99.90;;;;;;5043023;28;20040;-58
2022/09/24 01:26:41;;;;;;;21.90;17.35;;;14.00;99.90;;;;;;5042306;28;20072;-57
2022/09/24 01:29:40;;;;;;;22.90;17.35;;;14.00;99.90;;;;;;5039897;28;20056;-58
2022/09/24 01:32:17;;;;;;;20.23;16.45;;;14.00;99.90;;;;;;5030782;28;20020;-59
2022/09/24 01:34:48;;;;;;;20.13;16.50;;;14.00;99.90;;;;;;5047947;28;20561;-58
2022/09/24 01:37:17;;;;;;;20.90;16.80;;;14.00;99.90;;;;;;5045202;28;20041;-59
2022/09/24 01:39:45;;;;;;;19.75;16.77;;;14.00;99.90;;;;;;5043922;28;20393;-58
2022/09/24 01:42:12;;;;;;;18.58;15.13;;;14.10;99.90;;;;;;5046640;28;20500;-58
2022/09/24 01:44:40;;;;;;;21.27;16.15;;;14.00;99.90;;;;;;5043201;28;20756;-57
2022/09/24 01:47:08;;;;;;;21.48;16.30;;;14.00;99.90;;;;;;5039550;28;20094;-58
2022/09/24 01:49:33;;;;;;;21.60;16.27;;;14.00;99.90;;;;;;5043747;28;20048;-59
2022/09/24 01:52:05;;;;;;;20.73;17.33;;;13.90;99.90;;;;;;5042703;28;20032;-58
2022/09/24 01:54:37;;;;;;;22.73;16.25;;;14.00;99.90;;;;;;5048483;28;20475;-59
2022/09/24 01:57:16;;;;;;;20.73;16.50;;;13.90;99.90;;;;;;5041448;28;20033;-58
2022/09/24 01:59:45;;;;;;;20.80;16.13;;;13.80;99.90;;;;;;5043133;28;20460;-59
2022/09/24 02:02:39;;;;;;;21.25;17.55;;;13.80;99.90;;;;;;5044135;28;20417;-59
2022/09/24 02:05:18;;;;;;;18.77;15.73;;;13.80;99.90;;;;;;5042622;28;20048;-58
2022/09/24 02:07:56;;;;;;;21.20;16.92;;;13.80;99.90;;;;;;5040900;28;20037;-59
2022/09/24 02:10:21;;;;;;;19.38;15.52;;;13.90;99.90;;;;;;5043558;28;20055;-57
2022/09/24 02:13:00;;;;;;;19.15;16.00;;;13.80;99.90;;;;;;5043882;28;20115;-58
2022/09/24 02:15:31;;;;;;;19.17;16.17;;;13.80;99.90;;;;;;5043752;28;20048;-58
2022/09/24 02:18:01;;;;;;;20.38;16.35;;;13.80;99.90;;;;;;5048085;28;20055;-58
2022/09/24 02:20:29;;;;;;;20.05;16.05;;;13.80;99.90;;;;;;5040065;28;20407;-58
2022/09/24 02:22:56;;;;;;;18.90;15.73;;;13.80;99.90;;;;;;5043643;28;20033;-58
2022/09/24 02:25:30;;;;;;;21.17;15.48;;;13.70;99.90;;;;;;5046454;28;20055;-58
2022/09/24 02:27:56;;;;;;;18.63;15.13;;;13.80;99.90;;;;;;5046213;28;20047;-59
2022/09/24 02:30:21;;;;;;;25.80;17.13;;;13.70;99.90;;;;;;5045357;28;20264;-59
2022/09/24 02:32:48;;;;;;;18.80;15.00;;;13.70;99.90;;;;;;5046082;28;20047;-58
2022/09/24 02:35:14;;;;;;;18.50;14.80;;;13.80;99.90;;;;;;5042185;28;20047;-59
2022/09/24 02:37:42;;;;;;;19.73;14.55;;;13.70;99.90;;;;;;5050482;28;20028;-59
2022/09/24 02:40:13;;;;;;;18.00;14.40;;;13.70;99.90;;;;;;5041750;28;20037;-58
2022/09/24 02:42:41;;;;;;;21.38;15.98;;;13.80;99.90;;;;;;5047394;28;20116;-57
2022/09/24 02:45:07;;;;;;;19.98;15.43;;;13.80;99.90;;;;;;5038594;28;20416;-57
2022/09/24 02:47:33;;;;;;;17.35;14.30;;;13.80;99.90;;;;;;5039294;28;20037;-59
2022/09/24 02:49:59;;;;;;;21.85;16.17;;;13.80;99.90;;;;;;5046579;28;20456;-58
2022/09/24 02:52:24;;;;;;;21.77;16.83;;;13.80;99.90;;;;;;5041844;28;20044;-58
2022/09/24 02:54:50;;;;;;;20.42;16.40;;;13.80;99.90;;;;;;5043293;28;20033;-59
2022/09/24 02:57:17;;;;;;;22.05;16.35;;;13.80;99.90;;;;;;5042998;28;20041;-59
2022/09/24 02:59:43;;;;;;;21.45;17.60;;;13.80;99.90;;;;;;5043273;28;20460;-59
2022/09/24 03:02:08;;;;;;;21.85;16.80;;;13.70;99.90;;;;;;5044684;28;20036;-58
2022/09/24 03:04:34;;;;;;;22.73;17.25;;;13.80;99.90;;;;;;5040534;28;20037;-58
2022/09/24 03:07:00;;;;;;;22.73;17.25;;;13.80;99.90;;;;;;5043682;28;20039;-59
2022/09/24 03:09:25;;;;;;;20.73;16.75;;;13.70;99.90;;;;;;5043499;28;20298;-57
2022/09/24 03:11:51;;;;;;;19.73;15.40;;;13.70;99.90;;;;;;5041138;28;20048;-58
2022/09/24 03:14:17;;;;;;;24.25;17.10;;;13.70;99.90;;;;;;5041658;28;20802;-58
2022/09/24 03:16:42;;;;;;;19.23;15.95;;;13.70;99.90;;;;;;5038082;28;20037;-58
2022/09/24 03:19:08;;;;;;;20.58;15.10;;;13.60;99.90;;;;;;5040840;28;20056;-58
2022/09/24 03:21:33;;;;;;;19.92;15.75;;;13.60;99.90;;;;;;5038969;28;20056;-59
2022/09/24 03:23:59;;;;;;;19.80;15.68;;;13.70;99.90;;;;;;5038578;28;20151;-58
2022/09/24 03:26:25;;;;;;;19.80;16.00;;;13.70;99.90;;;;;;5046377;28;20147;-58
2022/09/24 03:28:51;;;;;;;18.35;15.20;;;13.70;99.90;;;;;;5035390;28;20349;-59
2022/09/24 03:31:16;;;;;;;22.83;16.30;;;13.70;99.90;;;;;;5044102;28;20099;-58
2022/09/24 03:33:45;;;;;;;19.83;15.95;;;13.70;99.90;;;;;;5040676;28;20029;-58
2022/09/24 03:36:19;;;;;;;19.45;16.13;;;13.70;99.90;;;;;;5045820;28;20037;-58
2022/09/24 03:38:45;;;;;;;22.48;16.50;;;13.60;99.90;;;;;;5039620;28;20107;-58
2022/09/24 03:41:11;;;;;;;19.60;15.38;;;13.80;99.90;;;;;;5042503;28;20037;-58
2022/09/24 03:43:38;;;;;;;22.60;15.98;;;13.70;99.90;;;;;;5041839;28;20053;-59
2022/09/24 03:46:07;;;;;;;18.35;15.05;;;13.60;99.90;;;;;;5039474;28;20130;-57
2022/09/24 03:48:38;;;;;;;20.50;15.90;;;13.60;99.90;;;;;;5042483;28;20025;-58
2022/09/24 03:51:10;;;;;;;21.08;15.88;;;13.60;99.90;;;;;;5043732;28;20163;-59
2022/09/24 03:53:36;;;;;;;20.38;15.32;;;13.60;99.90;;;;;;5035350;28;20106;-58
2022/09/24 03:56:05;;;;;;;20.90;15.30;;;13.60;99.90;;;;;;5042933;28;20033;-59
2022/09/24 03:58:34;;;;;;;19.17;15.20;;;13.50;99.90;;;;;;5045259;28;20041;-59
2022/09/24 04:01:00;;;;;;;21.00;15.73;;;13.60;99.90;;;;;;5039435;28;20041;-58
2022/09/24 04:03:26;;;;;;;20.58;16.17;;;13.60;99.90;;;;;;5040630;28;20106;-59
2022/09/24 04:05:52;;;;;;;21.65;17.42;;;13.60;99.90;;;;;;5039640;28;20112;-58
2022/09/24 04:08:18;;;;;;;22.58;17.65;;;13.70;99.90;;;;;;5039163;28;20041;-58
2022/09/24 04:10:45;;;;;;;20.60;17.10;;;13.70;99.90;;;;;;5038684;28;20044;-58
2022/09/24 04:13:11;;;;;;;19.58;16.27;;;13.70;99.90;;;;;;5039563;28;20037;-59
2022/09/24 04:15:37;;;;;;;19.40;16.15;;;13.60;99.90;;;;;;5040698;28;20029;-59
2022/09/24 04:18:03;;;;;;;20.15;15.85;;;13.60;99.90;;;;;;5043678;28;20048;-58
2022/09/24 04:20:29;;;;;;;20.67;16.63;;;13.60;99.90;;;;;;5039171;28;20044;-58
2022/09/24 04:22:57;;;;;;;20.17;16.48;;;13.60;99.90;;;;;;5038307;28;20060;-59
2022/09/24 04:25:24;;;;;;;19.92;15.48;;;13.60;99.90;;;;;;5039699;28;20044;-58
2022/09/24 04:27:55;;;;;;;21.90;16.27;;;13.50;99.90;;;;;;5039449;28;20040;-59
2022/09/24 04:30:22;;;;;;;21.15;16.20;;;13.50;99.90;;;;;;5037076;28;20419;-59
2022/09/24 04:32:49;;;;;;;20.30;16.83;;;13.40;99.90;;;;;;5040453;28;20041;-59
2022/09/24 04:35:14;;;;;;;22.50;17.63;;;13.50;99.90;;;;;;5040674;28;20079;-58
2022/09/24 04:37:40;;;;;;;22.08;16.85;;;13.50;99.90;;;;;;5039528;28;20641;-57
2022/09/24 04:40:11;;;;;;;23.58;17.80;;;13.50;99.90;;;;;;5040659;28;20043;-58
2022/09/24 04:42:38;;;;;;;21.42;16.77;;;13.60;99.90;;;;;;5044535;28;20035;-58
2022/09/24 04:45:08;;;;;;;18.95;16.05;;;13.60;99.90;;;;;;5036438;28;20575;-58
2022/09/24 04:47:35;;;;;;;20.80;17.20;;;13.60;99.90;;;;;;5040689;28;20131;-58
2022/09/24 04:50:01;;;;;;;21.85;17.45;;;13.50;99.90;;;;;;5040867;28;20063;-58
2022/09/24 04:52:28;;;;;;;21.92;16.88;;;13.40;99.90;;;;;;5046159;28;20086;-58
2022/09/24 04:54:56;;;;;;;20.25;17.27;;;13.40;99.90;;;;;;5043340;28;20075;-59
2022/09/24 04:57:22;;;;;;;22.90;18.65;;;13.40;99.90;;;;;;5048353;28;20048;-59
2022/09/24 04:59:48;;;;;;;24.85;18.80;;;13.50;99.90;;;;;;5045618;28;20037;-58
2022/09/24 05:02:13;;;;;;;25.10;19.80;;;13.50;99.90;;;;;;5048100;28;20075;-59
2022/09/24 05:04:39;;;;;;;25.10;19.38;;;13.50;99.90;;;;;;5049279;28;20675;-58
2022/09/24 05:07:05;;;;;;;23.90;18.42;;;13.50;99.90;;;;;;5045395;28;20594;-56
2022/09/24 05:09:31;;;;;;;23.05;18.90;;;13.50;99.90;;;;;;5045820;28;20197;-58
2022/09/24 05:12:00;;;;;;;26.77;18.80;;;13.40;99.90;;;;;;5048253;28;20041;-58
2022/09/24 05:14:26;;;;;;;25.15;19.55;;;13.40;99.90;;;;;;5045223;28;20395;-59
2022/09/24 05:16:51;;;;;;;25.45;20.10;;;13.50;99.90;;;;;;5044232;28;20049;-59
2022/09/24 05:19:17;;;;;;;26.88;19.50;;;13.50;99.90;;;;;;5038509;28;20372;-58
2022/09/24 05:21:43;;;;;;;25.35;19.70;;;13.40;99.90;;;;;;5040220;28;20025;-58
2022/09/24 05:24:08;;;;;;;27.30;19.95;;;13.50;99.90;;;;;;5042604;28;20040;-59
2022/09/24 05:29:18;;;;;;;25.67;19.42;;;13.40;99.90;;;;;;5043156;28;20542;-58
2022/09/24 05:31:44;;;;;;;27.25;20.63;;;13.40;99.90;;;;;;5043798;28;20037;-58
2022/09/24 05:34:09;;;;;;;26.52;20.60;;;13.40;99.90;;;;;;5044437;28;20401;-58
2022/09/24 05:36:35;;;;;;;28.02;19.55;;;13.40;99.90;;;;;;5045269;28;20044;-59
2022/09/24 05:39:01;;;;;;;25.33;20.13;;;13.50;99.90;;;;;;5044726;28;20037;-58
2022/09/24 05:41:27;;;;;;;26.92;20.52;;;13.50;99.90;;;;;;5043650;28;20459;-59
2022/09/24 05:43:52;;;;;;;26.33;19.92;;;13.50;99.90;;;;;;5043660;28;20029;-58
2022/09/24 05:46:18;;;;;;;27.08;20.20;;;13.50;99.90;;;;;;5038032;28;20041;-58
2022/09/24 05:48:43;;;;;;;22.45;18.33;;;13.50;99.90;;;;;;5039575;28;20036;-59
2022/09/24 05:51:09;;;;;;;27.48;20.60;;;13.50;99.90;;;;;;5040903;28;20120;-59
2022/09/24 05:53:35;;;;;;;26.40;20.25;;;13.50;99.90;;;;;;5041757;28;21048;-59
2022/09/24 05:56:00;;;;;;;26.33;19.50;;;13.50;99.90;;;;;;5042133;28;20481;-59
2022/09/24 05:58:26;;;;;;;27.13;19.80;;;13.50;99.90;;;;;;5046969;28;20033;-59
2022/09/24 06:00:52;;;;;;;27.88;20.27;;;13.50;99.90;;;;;;5037557;28;20034;-59
2022/09/24 06:03:18;;;;;;;24.95;19.20;;;13.40;99.90;;;;;;5042007;28;20400;-58
2022/09/24 06:05:53;;;;;;;27.67;20.95;;;13.50;99.90;;;;;;5041660;28;20416;-59
2022/09/24 06:08:19;;;;;;;28.83;21.55;;;13.50;99.90;;;;;;5040182;28;20064;-58
2022/09/24 06:10:46;;;;;;;26.38;20.30;;;13.60;99.90;;;;;;5040747;28;20033;-59
2022/09/24 06:13:13;;;;;;;29.17;21.92;;;13.60;99.90;;;;;;5040396;28;20041;-59
2022/09/24 06:15:41;;;;;;;28.25;22.70;;;13.60;99.90;;;;;;5037933;28;20621;-58
2022/09/24 06:18:07;;;;;;;30.42;22.50;;;13.70;99.90;;;;;;5041616;28;20039;-59
2022/09/24 06:20:33;;;;;;;34.33;23.95;;;13.80;99.90;;;;;;5042218;28;20163;-59
2022/09/24 06:22:59;;;;;;;31.30;22.85;;;13.90;99.90;;;;;;5043493;28;20059;-59
2022/09/24 06:25:25;;;;;;;29.85;22.48;;;13.90;99.90;;;;;;5042947;28;20423;-59
2022/09/24 06:28:02;;;;;;;27.83;21.48;;;13.90;99.90;;;;;;5043067;28;20080;-59
2022/09/24 06:30:32;;;;;;;32.17;23.17;;;13.80;99.90;;;;;;5040715;28;20049;-59
2022/09/24 06:33:10;;;;;;;27.85;22.23;;;13.90;99.90;;;;;;5040061;28;20050;-59
2022/09/24 06:35:37;;;;;;;31.98;22.38;;;13.90;99.90;;;;;;5038939;28;20103;-59
2022/09/24 06:38:03;;;;;;;29.17;22.17;;;13.90;99.90;;;;;;5038952;28;20342;-58
2022/09/24 06:40:29;;;;;;;30.38;23.10;;;13.80;99.90;;;;;;5035569;28;20076;-58
2022/09/24 06:42:56;;;;;;;29.38;22.33;;;13.80;99.90;;;;;;5039849;28;20126;-58
2022/09/24 06:45:22;;;;;;;26.70;21.15;;;13.80;99.90;;;;;;5036366;28;20045;-58
2022/09/24 06:47:55;;;;;;;27.65;22.75;;;13.90;99.90;;;;;;5037982;28;20056;-59
2022/09/24 06:50:22;;;;;;;29.42;22.90;;;14.00;99.90;;;;;;5036889;28;20029;-59
2022/09/24 06:52:48;;;;;;;29.25;23.55;;;14.00;99.90;;;;;;5042040;28;20029;-58
2022/09/24 06:55:14;;;;;;;30.67;23.58;;;14.10;99.90;;;;;;5041340;28;20048;-59
2022/09/24 06:57:40;;;;;;;34.90;23.80;;;14.30;99.90;;;;;;5044712;28;20041;-59
2022/09/24 07:00:06;;;;;;;29.58;22.98;;;14.20;99.90;;;;;;5042239;28;20389;-58
2022/09/24 07:02:32;;;;;;;33.75;24.45;;;14.20;99.90;;;;;;5041037;28;21339;-58
2022/09/24 07:04:57;;;;;;;29.95;22.67;;;14.40;99.90;;;;;;5044469;28;20036;-58
2022/09/24 07:07:29;;;;;;;33.63;23.85;;;14.40;99.90;;;;;;5043084;28;20056;-58
2022/09/24 07:10:00;;;;;;;30.63;22.98;;;14.40;99.90;;;;;;5038848;28;20037;-58
2022/09/24 07:12:28;;;;;;;28.80;22.00;;;14.20;99.90;;;;;;5040373;28;20037;-59
2022/09/24 07:14:54;;;;;;;31.58;22.67;;;14.30;99.90;;;;;;5035132;28;20033;-59
2022/09/24 07:17:19;;;;;;;27.58;21.98;;;14.30;99.90;;;;;;5038507;28;20056;-59
2022/09/24 07:19:45;;;;;;;32.90;22.67;;;14.40;99.90;;;;;;5039074;28;20036;-59
2022/09/24 07:22:10;;;;;;;36.13;23.80;;;14.40;99.90;;;;;;5039800;28;20386;-59
2022/09/24 07:24:36;;;;;;;30.55;22.75;;;14.40;99.90;;;;;;5036262;28;20055;-57
2022/09/24 07:27:04;;;;;;;37.92;24.38;;;14.60;99.90;;;;;;5038819;28;20178;-58
2022/09/24 07:29:30;;;;;;;33.95;24.13;;;14.60;99.90;;;;;;5037236;28;20048;-59
2022/09/24 07:31:55;;;;;;;30.65;23.58;;;14.50;99.90;;;;;;5038401;28;20433;-58
2022/09/24 07:34:21;;;;;;;29.38;22.67;;;14.50;99.90;;;;;;5039758;28;20434;-59
2022/09/24 07:36:46;;;;;;;29.83;23.02;;;14.50;99.90;;;;;;5038290;28;20454;-59
2022/09/24 07:39:12;;;;;;;34.10;22.80;;;14.40;99.90;;;;;;5035653;28;20640;-58
2022/09/24 07:41:39;;;;;;;30.20;22.38;;;14.50;99.90;;;;;;5037944;28;20078;-58
2022/09/24 07:44:06;;;;;;;31.33;22.20;;;14.50;99.90;;;;;;5036284;28;20452;-59
2022/09/24 07:46:32;;;;;;;28.90;22.77;;;14.60;99.90;;;;;;5034084;28;20759;-59
2022/09/24 07:48:57;;;;;;;29.38;21.83;;;14.70;99.90;;;;;;5040112;28;20087;-57
2022/09/24 07:51:26;;;;;;;165.63;121.78;;;14.90;99.90;;;;;;5038456;28;20120;-57
2022/09/24 07:53:52;;;;;;;41.33;27.65;;;15.00;99.90;;;;;;5037275;28;20033;-58
2022/09/24 07:56:18;;;;;;;34.08;23.33;;;15.10;99.90;;;;;;5035688;28;20114;-58
2022/09/24 07:58:46;;;;;;;30.02;22.83;;;15.20;99.90;;;;;;5036219;28;20034;-59
2022/09/24 08:01:13;;;;;;;35.10;23.38;;;15.30;99.90;;;;;;5039272;28;20098;-58
2022/09/24 08:03:39;;;;;;;28.90;22.58;;;15.40;99.90;;;;;;5037638;28;20068;-59
2022/09/24 08:06:05;;;;;;;29.48;21.73;;;15.50;99.90;;;;;;5037084;28;20084;-58
2022/09/24 08:08:31;;;;;;;32.92;22.35;;;15.60;99.90;;;;;;5040774;28;20652;-58
2022/09/24 08:10:56;;;;;;;31.42;22.15;;;15.60;99.90;;;;;;5035661;28;21379;-59
2022/09/24 08:13:23;;;;;;;28.75;21.15;;;15.70;99.90;;;;;;5039966;28;20041;-59
2022/09/24 08:15:56;;;;;;;28.92;20.98;;;15.70;99.90;;;;;;5037608;28;20037;-58
2022/09/24 08:18:23;;;;;;;30.85;22.15;;;15.80;99.90;;;;;;5038575;28;20053;-58
2022/09/24 08:20:48;;;;;;;28.92;22.27;;;15.90;99.90;;;;;;5038292;28;20049;-58
2022/09/24 08:23:14;;;;;;;28.70;22.17;;;16.10;99.90;;;;;;5038216;28;20474;-58
2022/09/24 08:25:40;;;;;;;27.05;19.88;;;16.30;99.90;;;;;;5035586;28;20037;-59
2022/09/24 08:28:07;;;;;;;24.00;17.70;;;16.20;99.90;;;;;;5040813;28;20515;-58
2022/09/24 08:30:34;;;;;;;28.85;19.60;;;16.20;99.90;;;;;;5042573;28;20488;-59
2022/09/24 08:33:00;;;;;;;23.17;18.40;;;16.30;99.90;;;;;;5042463;28;20127;-59
2022/09/24 08:35:26;;;;;;;24.60;18.52;;;16.10;99.90;;;;;;5044110;28;20109;-60
2022/09/24 08:37:55;;;;;;;25.00;18.77;;;16.10;99.90;;;;;;5040414;28;20086;-59
2022/09/24 08:40:23;;;;;;;27.10;18.33;;;16.00;99.90;;;;;;5040199;28;20033;-59
2022/09/24 08:43:04;;;;;;;23.90;18.10;;;16.20;99.90;;;;;;5041235;28;20397;-59
2022/09/24 08:48:28;;;;;;;25.00;18.02;;;16.20;99.90;;;;;;5037607;28;20443;-59
2022/09/24 08:51:00;;;;;;;22.92;17.90;;;16.20;99.90;;;;;;5039553;28;20086;-59
2022/09/24 08:53:47;;;;;;;24.83;18.08;;;16.30;99.90;;;;;;5039756;28;20071;-59
2022/09/24 08:56:16;;;;;;;23.67;18.17;;;16.30;99.90;;;;;;5035587;28;20496;-59
2022/09/24 08:58:51;;;;;;;23.60;17.17;;;16.50;99.90;;;;;;5039977;28;20171;-59
2022/09/24 09:01:39;;;;;;;22.67;16.70;;;16.80;99.90;;;;;;5042147;28;20540;-59
2022/09/24 09:04:16;;;;;;;24.85;18.27;;;16.70;99.90;;;;;;5047744;28;20630;-59
2022/09/24 09:07:18;;;;;;;21.73;16.00;;;16.90;99.90;;;;;;5042040;28;20578;-59
2022/09/24 09:09:54;;;;;;;29.42;22.23;;;16.90;99.90;;;;;;5043554;28;20489;-58
2022/09/24 09:12:22;;;;;;;19.00;13.13;;;16.80;99.90;;;;;;5044542;28;20041;-59
2022/09/24 09:15:08;;;;;;;16.42;11.20;;;16.90;99.90;;;;;;5041732;28;20567;-59
2022/09/24 09:17:46;;;;;;;11.75;9.20;;;17.00;99.90;;;;;;5035908;28;20068;-59
2022/09/24 09:20:27;;;;;;;12.00;8.65;;;17.10;99.90;;;;;;5041783;28;20462;-59
2022/09/24 09:22:53;;;;;;;18.05;10.05;;;16.90;99.90;;;;;;5047365;28;20628;-59
2022/09/24 09:25:28;;;;;;;15.73;11.02;;;16.90;99.90;;;;;;5043554;28;20115;-59
2022/09/24 09:28:13;;;;;;;13.45;9.55;;;17.00;99.90;;;;;;5042763;28;20350;-58
2022/09/24 09:30:50;;;;;;;12.65;8.90;;;17.10;99.90;;;;;;5038625;28;20033;-58
2022/09/24 09:33:39;;;;;;;14.57;8.85;;;17.10;99.90;;;;;;5040733;28;20068;-60
2022/09/24 09:36:32;;;;;;;12.23;8.00;;;17.00;99.90;;;;;;5039121;28;20087;-60
2022/09/24 09:39:18;;;;;;;10.63;8.10;;;16.90;99.90;;;;;;5041834;28;20125;-59
2022/09/24 09:41:48;;;;;;;11.07;8.63;;;16.90;99.90;;;;;;5040760;28;20072;-59
2022/09/24 09:44:40;;;;;;;13.52;8.70;;;17.10;99.90;;;;;;5039977;28;20348;-60
2022/09/24 09:47:38;;;;;;;13.00;9.02;;;17.20;99.90;;;;;;5027291;28;21251;-59
2022/09/24 09:50:24;;;;;;;11.40;8.77;;;17.20;99.90;;;;;;5039641;28;20106;-59
2022/09/24 09:52:49;;;;;;;11.02;8.10;;;17.00;99.90;;;;;;5037000;28;20033;-59
2022/09/24 09:55:26;;;;;;;12.02;8.55;;;17.00;99.90;;;;;;5035842;28;20064;-59
2022/09/24 09:57:52;;;;;;;12.63;7.80;;;16.90;99.90;;;;;;5042697;28;20033;-60
2022/09/24 10:00:36;;;;;;;10.75;8.00;;;17.10;99.90;;;;;;5043186;28;20179;-59
2022/09/24 10:03:02;;;;;;;11.32;7.05;;;17.20;99.90;;;;;;5040119;28;20044;-60
2022/09/24 10:05:29;;;;;;;11.38;7.78;;;17.20;99.90;;;;;;5042388;28;20174;-59
2022/09/24 10:07:58;;;;;;;8.98;7.15;;;17.30;99.90;;;;;;5038163;28;20416;-59
2022/09/24 10:10:28;;;;;;;9.48;7.65;;;17.20;99.90;;;;;;5042831;28;20033;-59
2022/09/24 10:13:08;;;;;;;11.00;7.22;;;17.20;99.90;;;;;;5038341;28;20039;-59
2022/09/24 10:15:58;;;;;;;9.25;7.03;;;17.20;99.90;;;;;;5038004;28;20728;-58
2022/09/24 10:18:32;;;;;;;9.32;6.93;;;17.30;99.90;;;;;;5037944;28;20306;-59
2022/09/24 10:21:02;;;;;;;9.43;7.50;;;17.30;99.90;;;;;;5039336;28;20738;-59
2022/09/24 10:23:40;;;;;;;8.27;7.30;;;17.30;99.90;;;;;;5035704;28;20029;-59
2022/09/24 10:26:07;;;;;;;12.35;7.93;;;17.40;99.90;;;;;;5039361;28;20506;-60
2022/09/24 10:31:22;;;;;;;10.10;7.85;;;17.50;99.90;;;;;;5042179;28;20253;-59
2022/09/24 10:33:52;;;;;;;11.60;8.20;;;17.40;99.90;;;;;;5043296;28;20077;-59
2022/09/24 10:36:21;;;;;;;13.15;8.68;;;17.30;99.90;;;;;;5040322;28;20056;-58
2022/09/24 10:38:47;;;;;;;9.73;8.35;;;17.40;99.90;;;;;;5038689;28;20095;-59
2022/09/24 10:41:26;;;;;;;12.60;8.48;;;17.60;99.90;;;;;;5037416;28;20045;-59
2022/09/24 10:43:53;;;;;;;10.25;8.13;;;17.60;99.90;;;;;;5041572;28;20476;-60
2022/09/24 10:46:40;;;;;;;9.98;7.82;;;17.60;99.90;;;;;;5034402;28;20437;-59
2022/09/24 10:49:13;;;;;;;11.52;7.97;;;17.30;99.90;;;;;;5042664;28;20033;-59
2022/09/24 10:51:57;;;;;;;9.18;7.25;;;17.10;99.90;;;;;;5040308;28;20037;-59
2022/09/24 10:55:00;;;;;;;9.98;7.45;;;17.20;99.90;;;;;;5041995;28;20762;-59
2022/09/24 10:57:58;;;;;;;8.60;7.00;;;17.30;99.90;;;;;;5040771;28;20119;-59
2022/09/24 11:00:37;;;;;;;10.95;7.72;;;17.60;99.90;;;;;;5031069;28;20385;-59
2022/09/24 11:03:42;;;;;;;11.32;7.72;;;17.70;99.90;;;;;;5038148;28;20041;-59
2022/09/24 11:06:17;;;;;;;10.00;7.55;;;17.70;99.90;;;;;;5041125;28;20520;-58
2022/09/24 11:08:51;;;;;;;9.98;7.20;;;17.70;99.90;;;;;;5036143;28;20263;-60
2022/09/24 11:11:46;;;;;;;10.50;6.85;;;17.40;99.90;;;;;;5036007;28;20032;-60
2022/09/24 11:17:12;;;;;;;7.82;6.50;;;17.20;99.90;;;;;;5441935;23;20038;-59
2022/09/24 11:19:52;;;;;;;8.80;6.60;;;17.20;99.90;;;;;;4963959;28;20046;-59
2022/09/24 11:22:46;;;;;;;7.90;6.40;;;17.00;99.90;;;;;;4962031;28;20486;-59
2022/09/24 11:25:15;;;;;;;10.15;7.10;;;17.00;99.90;;;;;;4961595;28;20524;-58
2022/09/24 11:27:58;;;;;;;10.27;7.25;;;17.00;99.90;;;;;;4963169;28;20060;-59
2022/09/24 11:30:46;;;;;;;10.23;7.50;;;16.90;99.90;;;;;;4962330;28;20035;-59
2022/09/24 11:33:44;;;;;;;8.43;6.60;;;17.20;99.90;;;;;;4963094;28;20141;-59
2022/09/24 11:36:27;;;;;;;8.98;6.60;;;17.40;99.90;;;;;;4950553;28;20306;-58
2022/09/24 11:39:20;;;;;;;8.77;6.57;;;17.30;99.90;;;;;;4963363;28;20043;-59
2022/09/24 11:42:15;;;;;;;10.50;6.93;;;17.40;99.90;;;;;;4965099;28;20118;-59
2022/09/24 11:45:02;;;;;;;9.15;7.30;;;17.40;99.90;;;;;;4962566;28;20273;-59
2022/09/24 11:48:00;;;;;;;9.10;6.65;;;16.90;99.90;;;;;;4961464;28;20031;-59
2022/09/24 11:50:34;;;;;;;9.02;7.05;;;17.10;99.90;;;;;;4958291;28;20054;-59
2022/09/24 11:53:22;;;;;;;8.63;6.80;;;17.30;99.90;;;;;;4959311;28;20027;-59
2022/09/24 11:56:09;;;;;;;8.85;7.13;;;17.40;99.90;;;;;;4960710;28;20059;-59
2022/09/24 11:58:42;;;;;;;9.68;6.78;;;17.30;99.90;;;;;;4961821;28;20078;-58
2022/09/24 12:01:16;;;;;;;;;;;17.50;99.90;;;;;;4962784;28;20034;-59
2022/09/24 12:03:57;;;;;;;8.80;7.32;;;17.70;99.90;;;;;;4964697;28;20357;-59
2022/09/24 12:06:53;;;;;;;9.77;7.65;;;17.80;99.90;;;;;;4967395;28;20039;-59
2022/09/24 12:09:51;;;;;;;8.60;6.97;;;18.10;99.90;;;;;;4967025;28;20031;-59
2022/09/24 12:12:24;;;;;;;8.98;7.70;;;18.30;99.90;;;;;;4952254;28;20451;-59
2022/09/24 12:15:04;;;;;;;8.52;7.22;;;18.00;99.90;;;;;;4964532;28;20031;-59
2022/09/24 12:17:44;;;;;;;11.32;7.90;;;17.50;99.90;;;;;;4963051;28;20451;-59
2022/09/24 12:20:18;;;;;;;9.30;7.00;;;17.40;99.90;;;;;;4961604;28;20090;-58
2022/09/24 12:22:47;;;;;;;8.13;6.82;;;17.60;99.90;;;;;;4960839;28;20058;-59
2022/09/24 12:25:13;;;;;;;8.60;6.95;;;18.00;99.90;;;;;;4960532;28;20572;-59
2022/09/24 12:27:39;;;;;;;8.02;6.70;;;18.30;99.90;;;;;;4958994;28;20497;-59
2022/09/24 12:33:40;;;;;;;9.25;8.20;;;18.20;99.90;;;;;;4964838;28;20734;-59
2022/09/24 12:36:16;;;;;;;11.90;7.85;;;17.90;99.90;;;;;;4962273;28;20053;-59
2022/09/24 12:38:48;;;;;;;9.10;7.90;;;18.00;99.90;;;;;;4961110;28;20270;-59
2022/09/24 12:41:23;;;;;;;11.40;7.75;;;18.10;99.90;;;;;;4960542;28;20568;-59
2022/09/24 12:44:02;;;;;;;8.75;7.47;;;18.30;99.90;;;;;;4964144;28;20035;-59
2022/09/24 12:46:41;;;;;;;9.15;7.10;;;18.10;99.90;;;;;;4969611;28;20096;-59
2022/09/24 12:49:25;;;;;;;8.27;6.80;;;18.10;99.90;;;;;;4963359;28;20035;-59
2022/09/24 12:51:52;;;;;;;9.02;7.20;;;17.50;99.90;;;;;;4964097;28;20095;-59
2022/09/24 12:54:33;;;;;;;8.63;6.65;;;17.40;99.90;;;;;;4957327;28;20533;-59
2022/09/24 12:57:18;;;;;;;12.02;8.98;;;17.30;99.90;;;;;;4958874;28;20041;-60
2022/09/24 12:59:58;;;;;;;12.00;9.27;;;17.20;99.90;;;;;;4963889;28;20133;-59
2022/09/24 13:02:41;;;;;;;8.48;6.95;;;17.10;99.90;;;;;;4961306;28;20053;-59
2022/09/24 13:05:21;;;;;;;12.32;7.53;;;17.20;99.90;;;;;;4964687;28;20035;-59
2022/09/24 13:08:15;;;;;;;9.10;7.38;;;17.20;99.90;;;;;;4962650;28;20474;-60
2022/09/24 13:10:57;;;;;;;9.95;7.15;;;17.20;99.90;;;;;;4964664;28;20072;-60